Forside
METAR-TAF:

METAR-TAF

Lufthavne :

Cape Town International Airport

Kapstaden, Sydafrika

Breddekreds: 33-59S, længdekreds: 018-36E, højde: 42 m

Aktuelle vejr

Denne rapport blev lavet for 49 minutter siden, kl. 12:00 UTC
Vind 8 kt fra syd, varierende mellem sydsydøst og sydvest
Temperatur 23°C
Fugtighed 53%
Tryk 1015 hPa
Sigt 10 km eller mere
Nogle få skyer i en højde af 4000 ft

METAR: FACT 221200Z 19008KT 150V230 9999 FEW040 23/13 Q1015 NOSIG

Tid: 14:49 (12:49 UTC)

Vejrudsigter

Denne rapport blev lavet for 2 timer og 49 minutter siden, kl. 10:00 UTC
Foreløbig gælder fra 22 på 12 UTC til 23 på 18 UTC
Vind 12 kt fra syd
Sigt 10 km eller mere
Nogle få skyer i en højde af 3000 ft
Fra 22 på 2200 UTC
Vind 8 kt fra syd
Sigt 10 km eller mere
Spredte skyer i en højde af 1200 ft
Brudte skyer i en højde af 2500 ft
Fra 23 på 1200 UTC
Vind 15 kt fra syd
Sigt 10 km eller mere
Nogle få skyer i en højde af 2500 ft

TAF: FACT 221000Z 2212/2318 19012KT 9999 FEW030 TX25/2212Z TN16/2304Z FM222200 19008KT 9999 SCT012 BKN025 FM231200 19015KT 9999 FEW025

Vejrobservationer og prognoser fra mere end 4000 lufthavne (METAR og TAF).

De gule og røde prikker repræsenterer de meteorologiske stationer.

Flyt musen over at se navnet på stationen.

Så klik over at se vejr observationer og prognoser.

At skifte det kort: Klik på de grønne knapper med et sort kors for at zoome ind; på den grønne knap med en bindestreg for at zoome ud; eller på de grønne pile for tilstødende kort.


METAR-TAF: